Savannah, Ohio
Current Conditions -  °F | °C
As of 9:52 AM on Wednesday 26 Nov 2014 (Local Time) from KMFD Reporting Station
Overcast Overcast  
Wind Chill: 25°   Ceiling: 2400
Heat Index: 31°   Visibility: 10mi
Dew Point: 24°   Wind: 6mph
Humidity: 76%   Direction: 360°N
Pressure: 30.09"   Gusts: NA
Location:  40.97°N, 82.37°W
Report Text: KMFD 261452Z 36005KT 10SM OVC024 M01/M04 A3009 RMK AO2 SLP204 T10061044 58007
Loading
Personal Weather Stations






























Interactive Weather Map New forecast layout! Learn more

10-Day Weather Forecast

Advertisements
Track Severe Weather on mobile